Time;durP1;ratioP1;P1;durP2;ratioP2;P2;SDS_P1;SDS_P2;PMS_P1;PMS_P2;Temp;Humidity;BMP_temperature;BMP_pressure;BME280_temperature;BME280_humidity;BME280_pressure;Samples;Min_cycle;Max_cycle;Signal;HPM_P1;HPM_P2
2023/09/07 00:01:30;;;;;;;7.18;3.72;;;23.90;99.90;;;;;;4991148;28;20045;-40
2023/09/07 00:03:56;;;;;;;6.78;3.67;;;24.70;99.90;;;;;;4991839;28;20050;-39
2023/09/07 00:06:22;;;;;;;6.90;3.67;;;24.50;99.90;;;;;;4991906;28;20045;-40
2023/09/07 00:08:48;;;;;;;7.72;3.70;;;23.70;99.90;;;;;;4984843;28;20034;-40
2023/09/07 00:11:13;;;;;;;7.40;3.80;;;24.40;99.90;;;;;;4992768;28;20121;-39
2023/09/07 00:13:39;;;;;;;8.00;4.38;;;23.50;99.90;;;;;;4991965;28;20038;-40
2023/09/07 00:16:05;;;;;;;5.53;3.28;;;23.70;99.90;;;;;;4992260;28;20045;-38
2023/09/07 00:18:32;;;;;;;9.00;3.92;;;24.50;99.90;;;;;;4992178;28;20073;-40
2023/09/07 00:20:59;;;;;;;7.55;3.95;;;24.40;99.90;;;;;;4992223;28;20411;-39
2023/09/07 00:23:25;;;;;;;6.03;3.83;;;23.40;99.90;;;;;;4990684;28;20051;-40
2023/09/07 00:25:51;;;;;;;5.90;4.03;;;23.20;99.90;;;;;;5007166;28;20432;-39
2023/09/07 00:28:16;;;;;;;7.72;4.25;;;23.50;99.90;;;;;;4991322;28;20045;-39
2023/09/07 00:30:42;;;;;;;6.15;4.03;;;25.70;99.90;;;;;;4991291;28;20034;-39
2023/09/07 00:33:08;;;;;;;7.30;3.70;;;24.00;99.90;;;;;;4992712;28;20073;-40
2023/09/07 00:35:34;;;;;;;6.70;3.83;;;24.70;99.90;;;;;;4991010;28;20074;-39
2023/09/07 00:38:00;;;;;;;6.95;4.00;;;23.30;99.90;;;;;;4992384;28;20157;-40
2023/09/07 00:40:26;;;;;;;6.90;3.92;;;24.50;99.90;;;;;;4991746;28;20118;-39
2023/09/07 00:42:52;;;;;;;6.50;3.88;;;23.50;99.90;;;;;;4992405;28;20034;-40
2023/09/07 00:45:18;;;;;;;7.63;3.97;;;24.50;99.90;;;;;;4991631;28;20563;-39
2023/09/07 00:47:44;;;;;;;7.00;3.97;;;23.40;99.90;;;;;;4991756;28;20034;-40
2023/09/07 00:50:13;;;;;;;5.55;3.55;;;23.40;99.90;;;;;;4985657;28;20038;-39
2023/09/07 00:52:44;;;;;;;5.70;3.35;;;23.60;99.90;;;;;;4973602;28;20121;-40
2023/09/07 00:55:10;;;;;;;7.63;3.58;;;24.30;99.90;;;;;;4991446;28;20038;-40
2023/09/07 00:57:39;;;;;;;8.23;3.63;;;24.60;99.90;;;;;;4991703;28;20656;-40
2023/09/07 01:00:06;;;;;;;7.20;3.70;;;24.60;99.90;;;;;;4991881;28;20050;-40
2023/09/07 01:02:32;;;;;;;6.35;3.42;;;24.10;99.90;;;;;;4991149;28;20046;-40
2023/09/07 01:04:58;;;;;;;7.68;4.00;;;23.50;99.90;;;;;;4990832;28;20096;-39
2023/09/07 01:07:37;;;;;;;7.85;3.65;;;23.40;99.90;;;;;;4991150;28;20054;-40
2023/09/07 01:10:04;;;;;;;6.68;3.97;;;23.50;99.90;;;;;;4991792;28;20250;-39
2023/09/07 01:12:30;;;;;;;7.50;3.85;;;23.50;99.90;;;;;;4990130;28;20077;-40
2023/09/07 01:14:56;;;;;;;8.35;4.15;;;23.90;99.90;;;;;;4991454;28;20062;-40
2023/09/07 01:17:22;;;;;;;8.63;3.88;;;24.30;99.90;;;;;;4991262;28;20497;-39
2023/09/07 01:19:52;;;;;;;6.35;4.40;;;24.40;99.90;;;;;;4991213;28;20045;-39
2023/09/07 01:22:24;;;;;;;7.45;4.05;;;23.50;99.90;;;;;;4991596;28;20085;-40
2023/09/07 01:24:52;;;;;;;6.30;3.88;;;24.80;99.90;;;;;;4991116;28;20031;-39
2023/09/07 01:27:18;;;;;;;6.78;3.80;;;23.70;99.90;;;;;;4989715;28;20117;-40
2023/09/07 01:29:44;;;;;;;5.88;3.42;;;23.50;99.90;;;;;;4990503;28;20042;-40
2023/09/07 01:32:11;;;;;;;7.38;3.85;;;24.40;99.90;;;;;;4991353;28;20062;-39
2023/09/07 01:34:38;;;;;;;6.90;4.07;;;23.50;99.90;;;;;;4990849;28;20108;-37
2023/09/07 01:37:04;;;;;;;6.07;3.70;;;23.70;99.90;;;;;;4990871;28;20040;-39
2023/09/07 01:39:30;;;;;;;8.52;3.78;;;24.40;99.90;;;;;;4989443;28;20049;-39
2023/09/07 01:41:57;;;;;;;6.70;4.10;;;23.70;99.90;;;;;;4990643;28;20444;-39
2023/09/07 01:44:22;;;;;;;5.72;3.55;;;23.00;99.90;;;;;;4991096;28;20122;-40
2023/09/07 01:46:48;;;;;;;5.80;3.30;;;24.40;99.90;;;;;;4990097;28;20509;-39
2023/09/07 01:49:13;;;;;;;6.72;3.80;;;23.40;99.90;;;;;;4991152;28;20049;-39
2023/09/07 01:51:39;;;;;;;7.28;3.55;;;22.90;99.90;;;;;;4990703;28;20045;-39
2023/09/07 01:54:05;;;;;;;6.53;3.50;;;23.10;99.90;;;;;;4991058;28;20034;-39
2023/09/07 01:56:31;;;;;;;6.63;3.60;;;23.10;99.90;;;;;;4990296;28;20125;-39
2023/09/07 01:58:56;;;;;;;6.20;3.75;;;23.40;99.90;;;;;;4988988;28;20381;-40
2023/09/07 02:01:29;;;;;;;7.10;3.47;;;24.30;99.90;;;;;;4991012;28;20042;-39
2023/09/07 02:03:55;;;;;;;7.35;3.65;;;23.10;99.90;;;;;;4990630;28;20045;-39
2023/09/07 02:06:20;;;;;;;6.03;3.58;;;24.00;99.90;;;;;;4990595;28;20030;-39
2023/09/07 02:08:46;;;;;;;7.65;3.70;;;23.30;99.90;;;;;;4988975;28;20497;-39
2023/09/07 02:11:12;;;;;;;7.15;3.75;;;23.50;99.90;;;;;;4990352;28;20042;-40
2023/09/07 02:13:41;;;;;;;8.73;3.70;;;23.60;99.90;;;;;;4989354;28;20050;-39
2023/09/07 02:16:06;;;;;;;6.28;3.40;;;23.40;99.90;;;;;;4988665;28;20050;-37
2023/09/07 02:18:33;;;;;;;6.60;3.38;;;23.00;99.90;;;;;;4990549;28;20096;-39
2023/09/07 02:21:05;;;;;;;5.90;3.72;;;21.90;99.90;;;;;;4985982;28;20046;-40
2023/09/07 02:23:32;;;;;;;6.05;3.60;;;23.10;99.90;;;;;;4989380;28;20039;-39
2023/09/07 02:25:58;;;;;;;6.40;3.70;;;23.40;99.90;;;;;;4989186;28;20109;-38
2023/09/07 02:28:25;;;;;;;7.25;3.50;;;23.00;99.90;;;;;;4990537;28;20042;-39
2023/09/07 02:30:51;;;;;;;6.20;3.65;;;23.30;99.90;;;;;;4989921;28;20408;-38
2023/09/07 02:33:17;;;;;;;6.40;3.85;;;23.30;99.90;;;;;;4990581;28;20042;-40
2023/09/07 02:35:43;;;;;;;6.95;3.80;;;23.80;99.90;;;;;;4989638;28;20046;-39
2023/09/07 02:38:08;;;;;;;6.20;3.72;;;23.30;99.90;;;;;;4972912;28;20452;-39
2023/09/07 02:40:42;;;;;;;7.20;3.90;;;23.10;99.90;;;;;;4990203;28;20038;-39
2023/09/07 02:43:07;;;;;;;6.47;4.20;;;23.00;99.90;;;;;;4987506;28;20040;-39
2023/09/07 02:45:33;;;;;;;6.53;3.90;;;23.30;99.90;;;;;;4989692;28;20046;-39
2023/09/07 02:47:59;;;;;;;6.65;3.67;;;23.50;99.90;;;;;;4989986;28;20034;-40
2023/09/07 02:50:24;;;;;;;8.05;3.67;;;23.00;99.90;;;;;;4990246;28;20108;-39
2023/09/07 02:52:50;;;;;;;7.40;4.15;;;23.00;99.90;;;;;;4991422;28;20066;-39
2023/09/07 02:55:16;;;;;;;7.57;4.07;;;23.30;99.90;;;;;;4993230;28;20045;-39
2023/09/07 02:57:42;;;;;;;6.85;4.07;;;23.10;99.90;;;;;;4993885;28;20030;-39
2023/09/07 03:00:09;;;;;;;7.28;3.67;;;23.20;99.90;;;;;;4994219;28;20085;-38
2023/09/07 03:02:36;;;;;;;7.05;3.85;;;22.80;99.90;;;;;;4994465;28;20061;-39
2023/09/07 03:05:03;;;;;;;7.20;4.35;;;22.90;99.90;;;;;;4993800;28;20065;-40
2023/09/07 03:07:32;;;;;;;7.05;3.45;;;23.10;99.90;;;;;;4993524;28;20041;-39
2023/09/07 03:09:58;;;;;;;7.85;3.63;;;23.00;99.90;;;;;;4993908;28;20042;-39
2023/09/07 03:12:23;;;;;;;7.13;3.95;;;22.60;99.90;;;;;;4993942;28;20049;-39
2023/09/07 03:14:50;;;;;;;6.28;4.18;;;23.50;99.90;;;;;;4990565;28;20042;-39
2023/09/07 03:17:16;;;;;;;6.03;3.58;;;23.20;99.90;;;;;;4993385;28;20034;-39
2023/09/07 03:19:42;;;;;;;6.35;4.03;;;23.00;99.90;;;;;;4993623;28;20030;-39
2023/09/07 03:22:08;;;;;;;6.32;3.90;;;22.70;99.90;;;;;;4993645;28;20045;-39
2023/09/07 03:24:34;;;;;;;6.20;4.03;;;23.00;99.90;;;;;;4993745;28;20069;-39
2023/09/07 03:27:00;;;;;;;6.78;4.03;;;23.10;99.90;;;;;;4991887;28;20078;-40
2023/09/07 03:29:26;;;;;;;6.65;4.18;;;23.00;99.90;;;;;;4984893;28;20492;-39
2023/09/07 03:31:51;;;;;;;7.68;4.10;;;22.90;99.90;;;;;;4992958;28;20084;-39
2023/09/07 03:34:17;;;;;;;5.97;3.40;;;22.90;99.90;;;;;;4993454;28;20058;-39
2023/09/07 03:36:43;;;;;;;6.25;4.13;;;22.90;99.90;;;;;;4992277;28;20065;-39
2023/09/07 03:39:08;;;;;;;6.18;4.07;;;22.90;99.90;;;;;;4992092;28;20042;-39
2023/09/07 03:41:34;;;;;;;6.63;4.40;;;23.00;99.90;;;;;;4993178;28;20118;-39
2023/09/07 03:44:00;;;;;;;6.97;4.40;;;22.90;99.90;;;;;;4993181;28;20034;-39
2023/09/07 03:46:29;;;;;;;8.20;4.40;;;23.60;99.90;;;;;;4992945;28;20048;-37
2023/09/07 03:48:54;;;;;;;6.05;3.92;;;22.70;99.90;;;;;;4991118;28;20038;-39
2023/09/07 03:51:20;;;;;;;8.00;4.05;;;22.80;99.90;;;;;;4992139;28;20496;-39
2023/09/07 03:53:45;;;;;;;8.02;4.10;;;22.60;99.90;;;;;;4992547;28;20035;-39
2023/09/07 03:56:11;;;;;;;7.07;4.38;;;22.90;99.90;;;;;;4992698;28;20038;-39
2023/09/07 03:58:37;;;;;;;8.70;4.30;;;22.60;99.90;;;;;;4992829;28;20077;-40
2023/09/07 04:01:02;;;;;;;6.82;4.35;;;22.50;99.90;;;;;;4990723;28;21248;-39
2023/09/07 04:03:28;;;;;;;7.80;4.70;;;22.80;99.90;;;;;;4992935;28;20487;-38
2023/09/07 04:05:54;;;;;;;6.18;3.75;;;22.70;99.90;;;;;;4991769;28;20045;-39
2023/09/07 04:08:19;;;;;;;8.00;4.50;;;22.80;99.90;;;;;;4991999;28;20046;-39
2023/09/07 04:10:45;;;;;;;6.75;4.13;;;22.80;99.90;;;;;;4992428;28;20128;-39
2023/09/07 04:13:10;;;;;;;6.82;4.35;;;22.60;99.90;;;;;;4993081;28;20038;-39
2023/09/07 04:15:46;;;;;;;7.72;5.10;;;22.80;99.90;;;;;;4991889;28;20176;-39
2023/09/07 04:18:15;;;;;;;10.23;4.57;;;23.00;99.90;;;;;;4985021;28;20041;-39
2023/09/07 04:20:40;;;;;;;7.88;4.22;;;22.60;99.90;;;;;;4992471;28;20050;-40
2023/09/07 04:23:06;;;;;;;8.00;3.97;;;22.60;99.90;;;;;;4992497;28;20030;-39
2023/09/07 04:25:32;;;;;;;7.38;3.75;;;22.60;99.90;;;;;;4992088;28;20507;-39
2023/09/07 04:27:58;;;;;;;8.60;4.70;;;22.80;99.90;;;;;;4992319;28;20038;-38
2023/09/07 04:30:24;;;;;;;6.75;4.20;;;22.70;99.90;;;;;;4990909;28;20047;-39
2023/09/07 04:32:50;;;;;;;7.18;4.65;;;22.80;99.90;;;;;;4991792;28;20057;-39
2023/09/07 04:35:15;;;;;;;10.48;4.57;;;22.80;99.90;;;;;;4991465;28;20074;-39
2023/09/07 04:37:45;;;;;;;8.30;4.65;;;22.90;99.90;;;;;;4991573;28;20038;-40
2023/09/07 04:40:11;;;;;;;7.47;4.82;;;23.00;99.90;;;;;;4991964;28;20166;-37
2023/09/07 04:42:38;;;;;;;10.75;4.75;;;22.80;99.90;;;;;;4991553;28;20035;-39
2023/09/07 04:45:05;;;;;;;7.90;4.32;;;22.60;99.90;;;;;;4978899;28;20500;-40
2023/09/07 04:47:31;;;;;;;8.15;4.35;;;22.70;99.90;;;;;;4982834;28;20636;-38
2023/09/07 04:49:57;;;;;;;8.07;4.70;;;23.30;99.90;;;;;;4981723;28;20108;-37
2023/09/07 04:52:23;;;;;;;8.63;4.82;;;22.40;99.90;;;;;;4988430;28;20034;-39
2023/09/07 04:54:48;;;;;;;8.73;5.20;;;22.70;99.90;;;;;;4988898;28;20027;-39
2023/09/07 04:57:18;;;;;;;8.18;4.97;;;22.50;99.90;;;;;;4990270;28;20487;-39
2023/09/07 04:59:43;;;;;;;8.55;5.75;;;22.60;99.90;;;;;;4991783;28;20508;-39
2023/09/07 05:02:09;;;;;;;7.90;4.25;;;22.50;99.90;;;;;;4987923;28;20081;-39
2023/09/07 05:04:34;;;;;;;7.78;3.97;;;22.50;99.90;;;;;;4991962;28;20041;-39
2023/09/07 05:07:00;;;;;;;6.40;3.65;;;22.60;99.90;;;;;;4990653;28;20107;-40
2023/09/07 05:09:28;;;;;;;6.10;3.30;;;22.20;99.90;;;;;;4991657;28;20471;-40
2023/09/07 05:11:54;;;;;;;5.60;3.40;;;22.60;99.90;;;;;;4988771;28;20102;-39
2023/09/07 05:14:20;;;;;;;6.20;3.03;;;23.00;99.90;;;;;;4989437;28;20112;-39
2023/09/07 05:16:45;;;;;;;5.88;3.10;;;22.80;99.90;;;;;;4989215;28;20035;-39
2023/09/07 05:19:11;;;;;;;6.75;3.25;;;22.50;99.90;;;;;;4991283;28;20034;-39
2023/09/07 05:21:37;;;;;;;6.38;3.00;;;22.70;99.90;;;;;;4991479;28;20077;-37
2023/09/07 05:24:03;;;;;;;5.53;3.00;;;22.70;99.90;;;;;;5004297;28;20034;-40
2023/09/07 05:26:29;;;;;;;6.15;2.97;;;22.60;99.90;;;;;;4991534;28;20467;-39
2023/09/07 05:28:54;;;;;;;6.18;3.17;;;22.60;99.90;;;;;;4990214;28;20114;-39
2023/09/07 05:31:20;;;;;;;6.97;3.58;;;22.60;99.90;;;;;;4991785;28;20045;-39
2023/09/07 05:33:46;;;;;;;7.15;3.45;;;22.60;99.90;;;;;;4991744;28;20117;-38
2023/09/07 05:36:11;;;;;;;7.10;3.53;;;22.90;99.90;;;;;;4990880;28;20580;-39
2023/09/07 05:38:37;;;;;;;5.10;2.80;;;22.80;99.90;;;;;;4991386;28;20037;-37
2023/09/07 05:41:03;;;;;;;6.55;3.72;;;22.50;99.90;;;;;;4990955;28;20057;-38
2023/09/07 05:43:29;;;;;;;5.57;2.67;;;23.10;99.90;;;;;;4991395;28;20121;-39
2023/09/07 05:45:54;;;;;;;5.75;2.72;;;22.70;99.90;;;;;;4990560;28;20026;-40
2023/09/07 05:48:20;;;;;;;5.15;2.80;;;23.00;99.90;;;;;;4990383;28;20050;-39
2023/09/07 05:50:46;;;;;;;7.82;3.13;;;22.60;99.90;;;;;;4987507;28;20049;-40
2023/09/07 05:53:11;;;;;;;5.70;2.65;;;22.90;99.90;;;;;;4991336;28;20038;-39
2023/09/07 05:55:37;;;;;;;5.22;2.83;;;23.10;99.90;;;;;;4990797;28;20519;-39
2023/09/07 05:58:07;;;;;;;6.07;3.38;;;22.60;99.90;;;;;;4990899;28;20038;-38
2023/09/07 06:00:38;;;;;;;6.65;3.17;;;22.80;99.90;;;;;;4990919;28;20042;-39
2023/09/07 06:03:05;;;;;;;5.32;2.92;;;22.70;99.90;;;;;;4991281;28;20039;-38
2023/09/07 06:05:31;;;;;;;5.13;2.80;;;22.90;99.90;;;;;;4990806;28;20058;-39
2023/09/07 06:07:56;;;;;;;6.20;2.92;;;22.80;99.90;;;;;;4990956;28;20436;-40
2023/09/07 06:10:22;;;;;;;5.38;2.85;;;22.80;99.90;;;;;;4973641;28;20077;-39
2023/09/07 06:12:48;;;;;;;5.60;2.70;;;23.20;99.90;;;;;;4990840;28;20042;-38
2023/09/07 06:15:13;;;;;;;5.10;2.85;;;22.70;99.90;;;;;;4990188;28;20181;-38
2023/09/07 06:17:39;;;;;;;5.28;2.60;;;23.40;99.90;;;;;;4991023;28;20084;-40
2023/09/07 06:20:05;;;;;;;7.85;3.20;;;22.80;99.90;;;;;;4990689;28;20038;-39
2023/09/07 06:22:31;;;;;;;5.43;2.72;;;23.00;99.90;;;;;;4989493;28;20515;-39
2023/09/07 06:24:57;;;;;;;5.43;2.80;;;22.90;99.90;;;;;;4990594;28;20034;-38
2023/09/07 06:27:22;;;;;;;5.20;2.45;;;22.90;99.90;;;;;;4988538;28;20046;-39
2023/09/07 06:29:49;;;;;;;5.38;2.53;;;22.90;99.90;;;;;;4986151;28;20501;-39
2023/09/07 06:32:14;;;;;;;5.13;2.65;;;22.70;99.90;;;;;;4989713;28;20039;-39
2023/09/07 06:34:40;;;;;;;5.05;2.42;;;22.80;99.90;;;;;;4990839;28;20048;-38
2023/09/07 06:37:06;;;;;;;6.22;3.00;;;22.80;99.90;;;;;;4990133;28;20042;-36
2023/09/07 06:39:33;;;;;;;5.50;2.20;;;22.70;99.90;;;;;;4990697;28;20038;-39
2023/09/07 06:41:58;;;;;;;6.10;2.40;;;22.90;99.90;;;;;;4990267;28;20445;-39
2023/09/07 06:44:24;;;;;;;5.40;2.63;;;23.10;99.90;;;;;;4990465;28;20026;-39
2023/09/07 06:46:50;;;;;;;4.43;2.30;;;23.50;99.90;;;;;;4988752;28;20034;-39
2023/09/07 06:49:15;;;;;;;5.88;2.90;;;23.60;99.90;;;;;;4990961;28;20509;-38
2023/09/07 06:51:41;;;;;;;4.40;2.30;;;22.60;99.90;;;;;;4991824;28;20050;-37
2023/09/07 06:54:07;;;;;;;7.00;2.50;;;23.40;99.90;;;;;;4991587;28;20076;-39
2023/09/07 06:56:34;;;;;;;5.43;2.80;;;23.10;99.90;;;;;;4990942;28;20168;-39
2023/09/07 06:59:00;;;;;;;5.68;2.20;;;22.90;99.90;;;;;;4989192;28;20038;-39
2023/09/07 07:01:26;;;;;;;5.15;2.40;;;22.90;99.90;;;;;;4983190;28;20413;-39
2023/09/07 07:03:52;;;;;;;5.85;2.70;;;22.80;99.90;;;;;;4981620;28;20030;-36
2023/09/07 07:06:18;;;;;;;4.60;2.30;;;22.80;99.90;;;;;;4990632;28;20416;-38
2023/09/07 07:08:44;;;;;;;4.95;2.55;;;23.60;99.90;;;;;;4991114;28;20026;-39
2023/09/07 07:11:09;;;;;;;4.72;2.25;;;23.00;99.90;;;;;;4988770;28;20066;-39
2023/09/07 07:13:36;;;;;;;5.70;2.80;;;23.00;99.90;;;;;;4991038;28;20615;-39
2023/09/07 07:16:03;;;;;;;5.70;2.58;;;23.70;99.90;;;;;;4990092;28;20076;-39
2023/09/07 07:18:29;;;;;;;4.93;2.28;;;23.20;99.90;;;;;;4979331;28;20043;-40
2023/09/07 07:20:55;;;;;;;5.20;2.40;;;23.10;99.90;;;;;;4987093;28;20456;-39
2023/09/07 07:23:20;;;;;;;4.80;2.40;;;22.70;99.90;;;;;;4990514;28;20035;-37
2023/09/07 07:25:46;;;;;;;5.25;2.55;;;23.10;99.90;;;;;;4989944;28;20034;-38
2023/09/07 07:28:12;;;;;;;5.80;2.42;;;23.20;99.90;;;;;;4991701;28;20038;-37
2023/09/07 07:30:40;;;;;;;5.05;2.30;;;22.80;99.90;;;;;;4991801;28;20088;-40
2023/09/07 07:33:06;;;;;;;4.72;2.50;;;23.30;99.90;;;;;;4991521;28;20057;-39
2023/09/07 07:35:34;;;;;;;4.50;2.35;;;23.00;99.90;;;;;;4989014;28;20052;-39
2023/09/07 07:38:00;;;;;;;5.07;2.22;;;23.70;99.90;;;;;;4990896;28;20046;-39
2023/09/07 07:40:26;;;;;;;4.70;2.50;;;23.20;99.90;;;;;;4994148;28;20050;-39
2023/09/07 07:42:53;;;;;;;6.93;2.70;;;23.30;99.90;;;;;;4992930;28;20489;-39
2023/09/07 07:45:22;;;;;;;4.82;2.30;;;22.70;99.90;;;;;;4993885;28;20108;-38
2023/09/07 07:47:51;;;;;;;4.70;2.60;;;23.10;99.90;;;;;;4994706;28;20061;-39
2023/09/07 07:50:17;;;;;;;5.15;2.33;;;23.00;99.90;;;;;;4992004;28;20046;-39
2023/09/07 07:52:43;;;;;;;5.25;2.30;;;23.00;99.90;;;;;;4993925;28;20038;-39
2023/09/07 07:55:10;;;;;;;4.80;2.10;;;23.70;99.90;;;;;;4989449;28;20244;-39
2023/09/07 07:57:43;;;;;;;4.85;2.42;;;23.10;99.90;;;;;;4992410;28;20034;-38
2023/09/07 08:00:09;;;;;;;5.32;2.30;;;22.90;99.90;;;;;;4993227;28;20528;-38
2023/09/07 08:02:34;;;;;;;4.57;2.30;;;22.80;99.90;;;;;;4992614;28;20053;-39
2023/09/07 08:05:00;;;;;;;4.28;2.03;;;23.10;99.90;;;;;;4992495;28;20113;-38
2023/09/07 08:07:26;;;;;;;4.78;2.40;;;23.40;99.90;;;;;;4993342;28;20078;-39
2023/09/07 08:09:52;;;;;;;4.43;2.10;;;23.00;99.90;;;;;;4993897;28;20336;-40
2023/09/07 08:12:17;;;;;;;4.93;2.30;;;23.00;99.90;;;;;;4985602;28;20042;-39
2023/09/07 08:14:43;;;;;;;4.63;2.20;;;23.00;99.90;;;;;;4986852;28;20042;-39
2023/09/07 08:17:09;;;;;;;6.15;2.30;;;23.90;99.90;;;;;;4989686;28;20042;-38
2023/09/07 08:19:34;;;;;;;4.95;2.47;;;22.80;99.90;;;;;;4992074;28;20046;-39
2023/09/07 08:22:03;;;;;;;4.25;2.10;;;22.70;99.90;;;;;;4993732;28;20205;-39
2023/09/07 08:24:29;;;;;;;6.40;2.30;;;23.00;99.90;;;;;;4990375;28;20039;-39
2023/09/07 08:26:57;;;;;;;4.43;2.25;;;22.90;99.90;;;;;;4988043;28;20526;-40
2023/09/07 08:29:26;;;;;;;4.45;2.22;;;23.00;99.90;;;;;;4991996;28;20043;-37
2023/09/07 08:31:53;;;;;;;4.85;2.10;;;23.00;99.90;;;;;;4993441;28;20049;-40
2023/09/07 08:34:21;;;;;;;4.95;2.40;;;24.00;99.90;;;;;;4992801;28;20041;-39
2023/09/07 08:36:49;;;;;;;4.60;2.10;;;23.00;99.90;;;;;;4993186;28;20096;-40
2023/09/07 08:39:15;;;;;;;5.40;2.42;;;23.00;99.90;;;;;;4993229;28;20049;-40
2023/09/07 08:41:45;;;;;;;5.10;2.30;;;23.10;99.90;;;;;;4993159;28;20049;-39
2023/09/07 08:44:15;;;;;;;4.85;2.22;;;22.90;99.90;;;;;;4993158;28;20081;-39
2023/09/07 08:46:41;;;;;;;4.45;2.08;;;23.30;99.90;;;;;;4992420;28;20121;-39
2023/09/07 08:49:06;;;;;;;4.75;2.25;;;23.90;99.90;;;;;;4993063;28;20034;-39
2023/09/07 08:51:32;;;;;;;4.72;2.30;;;23.40;99.90;;;;;;4991280;28;20045;-40
2023/09/07 08:53:58;;;;;;;4.72;2.40;;;24.10;99.90;;;;;;4986830;28;20034;-39
2023/09/07 08:56:25;;;;;;;6.18;2.65;;;23.10;99.90;;;;;;4982712;28;20046;-39
2023/09/07 08:58:51;;;;;;;7.82;2.85;;;23.00;99.90;;;;;;4992149;28;20038;-37
2023/09/07 09:01:17;;;;;;;4.82;2.30;;;23.20;99.90;;;;;;4993065;28;20464;-37
2023/09/07 09:03:43;;;;;;;6.80;2.40;;;24.30;99.90;;;;;;4992797;28;20034;-39
2023/09/07 09:06:10;;;;;;;6.00;2.47;;;23.10;99.90;;;;;;4991239;28;20052;-39
2023/09/07 09:08:49;;;;;;;4.90;2.25;;;23.10;99.90;;;;;;4975148;28;20125;-39
2023/09/07 09:11:16;;;;;;;5.30;2.22;;;22.80;99.90;;;;;;4989704;28;20085;-38
2023/09/07 09:13:42;;;;;;;4.70;2.20;;;23.20;99.90;;;;;;4988387;28;20046;-39
2023/09/07 09:16:09;;;;;;;4.93;2.58;;;23.30;99.90;;;;;;4993170;28;20061;-38
2023/09/07 09:18:35;;;;;;;4.60;2.08;;;23.90;99.90;;;;;;4992197;28;20389;-37
2023/09/07 09:21:01;;;;;;;4.82;2.50;;;23.00;99.90;;;;;;4991183;28;20057;-39
2023/09/07 09:23:36;;;;;;;4.72;2.38;;;23.00;99.90;;;;;;4990332;28;20048;-37
2023/09/07 09:26:03;;;;;;;5.35;2.53;;;24.20;99.90;;;;;;4988222;28;20457;-39
2023/09/07 09:28:33;;;;;;;6.07;2.50;;;24.10;99.90;;;;;;4990228;28;20049;-39
2023/09/07 09:31:00;;;;;;;5.20;2.50;;;23.20;99.90;;;;;;4982817;28;20077;-39
2023/09/07 09:33:27;;;;;;;5.10;2.35;;;23.30;99.90;;;;;;4991940;28;20089;-39
2023/09/07 09:35:54;;;;;;;4.70;2.30;;;24.00;99.90;;;;;;4991908;28;20070;-38
2023/09/07 09:38:20;;;;;;;4.78;2.42;;;23.50;99.90;;;;;;4987824;28;20082;-38
2023/09/07 09:40:46;;;;;;;5.13;2.40;;;24.20;99.90;;;;;;4992222;28;20039;-39
2023/09/07 09:43:13;;;;;;;4.85;2.40;;;23.30;99.90;;;;;;4992127;28;20457;-39
2023/09/07 09:45:39;;;;;;;4.70;2.50;;;23.60;99.90;;;;;;4991701;28;20377;-39
2023/09/07 09:48:06;;;;;;;4.95;2.53;;;23.30;99.90;;;;;;4989583;28;20034;-38
2023/09/07 09:50:37;;;;;;;4.80;2.20;;;23.40;99.90;;;;;;4991453;28;20045;-39
2023/09/07 09:53:09;;;;;;;5.03;2.60;;;23.40;99.90;;;;;;4991733;28;20116;-39
2023/09/07 09:55:35;;;;;;;5.30;2.92;;;23.10;99.90;;;;;;4989974;28;20034;-37
2023/09/07 09:58:01;;;;;;;4.82;2.53;;;24.20;99.90;;;;;;4990585;28;20172;-39
2023/09/07 10:00:29;;;;;;;4.90;2.50;;;22.80;99.90;;;;;;4990932;28;20050;-38
2023/09/07 10:03:06;;;;;;;5.00;2.60;;;23.30;99.90;;;;;;4991149;28;20459;-38
2023/09/07 10:05:34;;;;;;;4.60;2.20;;;23.70;99.90;;;;;;4990869;28;20069;-38
2023/09/07 10:08:05;;;;;;;4.55;2.40;;;23.60;99.90;;;;;;4990159;28;20042;-37
2023/09/07 10:10:35;;;;;;;4.75;2.33;;;23.70;99.90;;;;;;4991353;28;20428;-39
2023/09/07 10:13:00;;;;;;;5.00;2.25;;;23.00;99.90;;;;;;4990098;28;20046;-39
2023/09/07 10:15:27;;;;;;;5.32;2.35;;;23.30;99.90;;;;;;4988700;28;20394;-39
2023/09/07 10:18:32;;;;;;;5.40;2.60;;;24.30;99.90;;;;;;4989874;28;20050;-39
2023/09/07 10:20:58;;;;;;;4.78;2.40;;;24.10;99.90;;;;;;4985034;28;20375;-39
2023/09/07 10:23:43;;;;;;;4.97;2.97;;;23.50;99.90;;;;;;4990949;28;20105;-39
2023/09/07 10:26:15;;;;;;;;;;;23.10;99.90;;;;;;4991303;28;20037;-38
2023/09/07 10:28:42;;;;;;;5.10;2.35;;;23.20;99.90;;;;;;4988024;28;19918;-39
2023/09/07 10:31:19;;;;;;;4.70;2.50;;;23.30;99.90;;;;;;4990227;28;20109;-39
2023/09/07 10:33:46;;;;;;;5.20;2.63;;;23.30;99.90;;;;;;4989741;28;20034;-39
2023/09/07 10:36:25;;;;;;;5.05;2.72;;;24.30;99.90;;;;;;4983681;28;20035;-39
2023/09/07 10:38:55;;;;;;;4.38;2.08;;;23.40;99.90;;;;;;4988266;28;20042;-39
2023/09/07 10:41:21;;;;;;;5.70;3.00;;;24.30;99.90;;;;;;4991225;28;20048;-39
2023/09/07 10:43:52;;;;;;;4.72;2.47;;;24.10;99.90;;;;;;4970482;28;20161;-37
2023/09/07 10:46:20;;;;;;;4.97;2.78;;;24.30;99.90;;;;;;4989707;28;20433;-39
2023/09/07 10:48:50;;;;;;;5.03;2.55;;;24.40;99.90;;;;;;4990655;28;20148;-39
2023/09/07 10:51:16;;;;;;;5.40;2.80;;;24.50;99.90;;;;;;4983658;28;20481;-38
2023/09/07 10:53:42;;;;;;;5.05;2.30;;;24.20;99.90;;;;;;4979700;28;20458;-38
2023/09/07 10:56:08;;;;;;;4.60;2.40;;;23.10;99.90;;;;;;4990777;28;20113;-39
2023/09/07 10:58:38;;;;;;;5.38;2.85;;;23.20;99.90;;;;;;4991010;28;20089;-38
2023/09/07 11:01:05;;;;;;;5.03;2.60;;;24.10;99.90;;;;;;4990059;28;20124;-39
2023/09/07 11:03:31;;;;;;;5.63;2.75;;;23.50;99.90;;;;;;4990765;28;20042;-39
2023/09/07 11:06:03;;;;;;;5.50;3.00;;;24.50;99.90;;;;;;4990656;28;20034;-38
2023/09/07 11:08:29;;;;;;;8.60;2.88;;;23.40;99.90;;;;;;4983129;28;20042;-38
2023/09/07 11:10:55;;;;;;;4.70;2.70;;;24.30;99.90;;;;;;4990782;28;20129;-39
2023/09/07 11:13:23;;;;;;;4.97;2.63;;;24.40;99.90;;;;;;4991530;28;20133;-39
2023/09/07 11:15:49;;;;;;;4.97;2.70;;;23.20;99.90;;;;;;4994156;28;20555;-39
2023/09/07 11:18:20;;;;;;;4.80;2.60;;;23.20;99.90;;;;;;4994884;28;20042;-39
2023/09/07 11:20:46;;;;;;;6.28;2.80;;;24.00;99.90;;;;;;4994809;28;20432;-39
2023/09/07 11:23:11;;;;;;;4.88;2.55;;;23.90;99.90;;;;;;4994537;28;20061;-39
2023/09/07 11:25:38;;;;;;;4.97;2.47;;;23.30;99.90;;;;;;4985912;28;20424;-39
2023/09/07 11:28:05;;;;;;;4.82;2.75;;;23.40;99.90;;;;;;4990350;28;20035;-39
2023/09/07 11:30:31;;;;;;;6.47;2.78;;;23.50;99.90;;;;;;4990456;28;20077;-37
2023/09/07 11:33:04;;;;;;;4.40;2.47;;;24.50;99.90;;;;;;4994488;28;20105;-39
2023/09/07 11:35:30;;;;;;;5.35;2.58;;;23.60;99.90;;;;;;4993824;28;20423;-39
2023/09/07 11:37:56;;;;;;;6.50;3.22;;;23.50;99.90;;;;;;4994703;28;20042;-39
2023/09/07 11:40:21;;;;;;;5.63;3.08;;;23.30;99.90;;;;;;4992951;28;20386;-39
2023/09/07 11:42:48;;;;;;;4.95;2.70;;;24.00;99.90;;;;;;4994037;28;20034;-39
2023/09/07 11:45:14;;;;;;;5.53;3.00;;;24.50;99.90;;;;;;4992306;28;20049;-39
2023/09/07 11:47:39;;;;;;;5.85;2.80;;;23.50;99.90;;;;;;4993860;28;20038;-39
2023/09/07 11:50:09;;;;;;;5.60;2.90;;;23.20;99.90;;;;;;4993856;28;20026;-39
2023/09/07 11:52:34;;;;;;;5.53;2.50;;;23.80;99.90;;;;;;4992573;28;20117;-39
2023/09/07 11:55:00;;;;;;;4.90;2.70;;;23.70;99.90;;;;;;4993993;28;20118;-39
2023/09/07 11:57:25;;;;;;;5.63;2.80;;;24.40;99.90;;;;;;4993433;28;20043;-39
2023/09/07 11:59:51;;;;;;;4.97;2.70;;;23.90;99.90;;;;;;4993505;28;20038;-39
2023/09/07 12:02:17;;;;;;;5.22;2.60;;;23.50;99.90;;;;;;4993834;28;20043;-39
2023/09/07 12:04:43;;;;;;;5.32;3.30;;;24.40;99.90;;;;;;4992924;28;20525;-37
2023/09/07 12:07:10;;;;;;;5.68;2.90;;;24.10;99.90;;;;;;4993171;28;20057;-39
2023/09/07 12:09:35;;;;;;;4.88;2.80;;;23.20;99.90;;;;;;4993791;28;20035;-38
2023/09/07 12:12:01;;;;;;;5.10;3.08;;;23.50;99.90;;;;;;4993619;28;20489;-39
2023/09/07 12:14:26;;;;;;;5.40;2.95;;;24.40;99.90;;;;;;4992673;28;20042;-39
2023/09/07 12:16:52;;;;;;;9.55;3.00;;;24.40;99.90;;;;;;4993350;28;20303;-39
2023/09/07 12:19:18;;;;;;;5.25;3.10;;;24.60;99.90;;;;;;4993591;28;20053;-39
2023/09/07 12:21:43;;;;;;;6.03;3.00;;;23.30;99.90;;;;;;4993253;28;20136;-39
2023/09/07 12:24:09;;;;;;;5.68;3.03;;;24.10;99.90;;;;;;4994724;28;20039;-38
2023/09/07 12:26:35;;;;;;;5.60;3.03;;;24.50;99.90;;;;;;4996116;28;20034;-39
2023/09/07 12:29:01;;;;;;;5.22;2.97;;;24.00;99.90;;;;;;4993742;28;20493;-39
2023/09/07 12:31:26;;;;;;;5.32;2.88;;;24.50;99.90;;;;;;4993444;28;20100;-39
2023/09/07 12:33:52;;;;;;;4.90;2.70;;;23.70;99.90;;;;;;4992004;28;20050;-39
2023/09/07 12:36:18;;;;;;;5.07;2.90;;;23.60;99.90;;;;;;4992492;28;20052;-39
2023/09/07 12:38:43;;;;;;;5.20;2.60;;;24.60;99.90;;;;;;4993154;28;20121;-39
2023/09/07 12:41:09;;;;;;;4.88;2.92;;;23.60;99.90;;;;;;4993384;28;20567;-39
2023/09/07 12:43:35;;;;;;;6.20;2.90;;;24.30;99.90;;;;;;4992749;28;20031;-39
2023/09/07 12:46:01;;;;;;;4.65;2.63;;;24.70;99.90;;;;;;4992764;28;20097;-39